Quay, New Mexico
Current Conditions -  °F | °C
As of 1:53 AM on Friday 31 Oct 2014 (Local Time) from KTCC Reporting Station
Clear Clear  
Wind Chill: 37°   Ceiling: Unl
Heat Index: 43°   Visibility: 10mi
Dew Point: 25°   Wind: 10mph
Humidity: 49%   Direction: 360°N
Pressure: 30.39"   Gusts: NA
Location:  34.93°N, 103.76°W
Report Text: KTCC 310753Z AUTO 36009KT 10SM CLR 06/M04 A3039 RMK AO2 SLP259 T00611039
Loading
Personal Weather Stations






























Interactive Weather Map
Tropical Storm Tracking
New forecast layout! Learn more

10-Day Weather Forecast

Advertisements
Track Severe Weather on mobile